Main page
METAR-TAF:

METAR-TAF

Airports :

Sir Seewoosagur Ramgoolam International Airport

Mauritius, Mauritius

latitude: 20-26S, longitude: 057-40E, elevation: 55 m

Current weather observation

The report was made 47 minutes ago, at 00:00 UTC
Wind 3 kt from the North/Northwest
Temperature 25°C
Humidity 83%
Pressure 1016 hPa
Visibility 10 km or more
Scattered clouds at a height of 1600 ft

METAR: FIMP 160000Z 34003KT 9999 SCT016 25/22 Q1016

Time: 04:47 (00:47 UTC)

Forecast

The report was made 1 hour and 17 minutes ago, at 23:30 UTC
Forecast valid from 16 at 00 UTC to 17 at 06 UTC
Wind 3 kt from the North/Northwest
Visibility 10 km or more
Scattered clouds at a height of 1800 ft
Becoming
from 16 at 04 UTC to 16 at 06 UTC
Wind 10 kt from the East/Northeast
Probability 30% :
Temporary
from 16 at 08 UTC to 16 at 18 UTC
Visibility: 7000 m
Broken clouds at a height of 1500 ft
light rain showers

TAF: FIMP 152330Z 1600/1706 34003KT 9999 SCT018 BECMG 1604/1606 07010KT PROB30 TEMPO 1608/1618 7000 -SHRA BKN015

Weather observations and forecasts of more than 4000 airports (METAR and TAF reports).

The available stations are represented by yellow and red dots on the map.

Hover mouse over dot to see the name of the station.

Then click to see weather observations and forecasts.

To change the map : click on the green buttons with a black cross to zoom in, on the green button with a dash to zoom out, or on the green arrows for adjacent maps.


METAR-TAF: